sensor_id;sensor_type;location;lat;lon;timestamp;P1;durP1;ratioP1;P2;durP2;ratioP2
37543;SDS011;23385;52.038;20.322;2022-07-01T00:01:23;15.40;;;6.32;;
37543;SDS011;23385;52.038;20.322;2022-07-01T00:03:49;11.93;;;6.35;;
37543;SDS011;23385;52.038;20.322;2022-07-01T00:06:15;15.77;;;6.35;;
37543;SDS011;23385;52.038;20.322;2022-07-01T00:08:42;13.82;;;8.32;;
37543;SDS011;23385;52.038;20.322;2022-07-01T00:11:09;14.23;;;7.15;;
37543;SDS011;23385;52.038;20.322;2022-07-01T00:13:35;19.38;;;7.80;;
37543;SDS011;23385;52.038;20.322;2022-07-01T00:16:02;11.55;;;6.47;;
37543;SDS011;23385;52.038;20.322;2022-07-01T00:18:28;12.43;;;6.32;;
37543;SDS011;23385;52.038;20.322;2022-07-01T00:20:54;18.10;;;7.18;;
37543;SDS011;23385;52.038;20.322;2022-07-01T00:23:20;12.02;;;6.88;;
37543;SDS011;23385;52.038;20.322;2022-07-01T00:25:46;10.65;;;5.82;;
37543;SDS011;23385;52.038;20.322;2022-07-01T00:28:12;9.30;;;6.90;;
37543;SDS011;23385;52.038;20.322;2022-07-01T00:30:38;14.48;;;7.00;;
37543;SDS011;23385;52.038;20.322;2022-07-01T00:33:04;15.00;;;7.55;;
37543;SDS011;23385;52.038;20.322;2022-07-01T00:35:31;10.60;;;7.25;;
37543;SDS011;23385;52.038;20.322;2022-07-01T00:37:57;19.63;;;7.50;;
37543;SDS011;23385;52.038;20.322;2022-07-01T00:40:25;11.13;;;6.70;;
37543;SDS011;23385;52.038;20.322;2022-07-01T00:42:52;13.63;;;7.15;;
37543;SDS011;23385;52.038;20.322;2022-07-01T00:45:17;10.70;;;7.00;;
37543;SDS011;23385;52.038;20.322;2022-07-01T00:47:43;17.92;;;7.40;;
37543;SDS011;23385;52.038;20.322;2022-07-01T00:50:14;10.88;;;7.45;;
37543;SDS011;23385;52.038;20.322;2022-07-01T00:52:41;12.13;;;7.03;;
37543;SDS011;23385;52.038;20.322;2022-07-01T00:55:09;13.43;;;6.57;;
37543;SDS011;23385;52.038;20.322;2022-07-01T00:57:37;23.17;;;7.45;;
37543;SDS011;23385;52.038;20.322;2022-07-01T01:00:05;13.65;;;7.15;;
37543;SDS011;23385;52.038;20.322;2022-07-01T01:02:33;16.10;;;7.53;;
37543;SDS011;23385;52.038;20.322;2022-07-01T01:05:01;10.15;;;7.40;;
37543;SDS011;23385;52.038;20.322;2022-07-01T01:07:28;16.95;;;8.05;;
37543;SDS011;23385;52.038;20.322;2022-07-01T01:09:54;14.77;;;7.78;;
37543;SDS011;23385;52.038;20.322;2022-07-01T01:12:20;12.82;;;6.93;;
37543;SDS011;23385;52.038;20.322;2022-07-01T01:14:51;13.15;;;7.30;;
37543;SDS011;23385;52.038;20.322;2022-07-01T01:17:19;12.73;;;8.07;;
37543;SDS011;23385;52.038;20.322;2022-07-01T01:19:47;16.52;;;7.07;;
37543;SDS011;23385;52.038;20.322;2022-07-01T01:22:13;14.77;;;7.20;;
37543;SDS011;23385;52.038;20.322;2022-07-01T01:24:40;11.25;;;7.00;;
37543;SDS011;23385;52.038;20.322;2022-07-01T01:27:06;13.23;;;7.35;;
37543;SDS011;23385;52.038;20.322;2022-07-01T01:29:32;14.10;;;6.93;;
37543;SDS011;23385;52.038;20.322;2022-07-01T01:32:00;13.93;;;7.30;;
37543;SDS011;23385;52.038;20.322;2022-07-01T01:34:27;11.23;;;6.97;;
37543;SDS011;23385;52.038;20.322;2022-07-01T01:36:53;14.77;;;7.00;;
37543;SDS011;23385;52.038;20.322;2022-07-01T01:39:19;12.52;;;7.05;;
37543;SDS011;23385;52.038;20.322;2022-07-01T01:41:45;9.75;;;6.60;;
37543;SDS011;23385;52.038;20.322;2022-07-01T01:44:13;8.27;;;6.53;;
37543;SDS011;23385;52.038;20.322;2022-07-01T01:46:39;13.20;;;7.32;;
37543;SDS011;23385;52.038;20.322;2022-07-01T01:49:05;17.10;;;7.68;;
37543;SDS011;23385;52.038;20.322;2022-07-01T01:51:31;12.15;;;6.72;;
37543;SDS011;23385;52.038;20.322;2022-07-01T01:53:57;16.63;;;7.88;;
37543;SDS011;23385;52.038;20.322;2022-07-01T01:56:24;12.77;;;7.18;;
37543;SDS011;23385;52.038;20.322;2022-07-01T01:58:51;13.35;;;6.95;;
37543;SDS011;23385;52.038;20.322;2022-07-01T02:01:19;10.38;;;7.28;;
37543;SDS011;23385;52.038;20.322;2022-07-01T02:03:46;12.15;;;6.80;;
37543;SDS011;23385;52.038;20.322;2022-07-01T02:06:13;9.90;;;6.80;;
37543;SDS011;23385;52.038;20.322;2022-07-01T02:08:40;12.82;;;7.72;;
37543;SDS011;23385;52.038;20.322;2022-07-01T02:11:06;18.85;;;8.10;;
37543;SDS011;23385;52.038;20.322;2022-07-01T02:18:43;10.20;;;7.95;;
37543;SDS011;23385;52.038;20.322;2022-07-01T02:21:09;12.15;;;8.27;;
37543;SDS011;23385;52.038;20.322;2022-07-01T02:23:35;13.07;;;8.63;;
37543;SDS011;23385;52.038;20.322;2022-07-01T02:26:01;12.13;;;8.45;;
37543;SDS011;23385;52.038;20.322;2022-07-01T02:28:26;12.70;;;8.20;;
37543;SDS011;23385;52.038;20.322;2022-07-01T02:30:52;12.57;;;8.07;;
37543;SDS011;23385;52.038;20.322;2022-07-01T02:33:18;14.02;;;8.77;;
37543;SDS011;23385;52.038;20.322;2022-07-01T02:35:43;10.82;;;8.63;;
37543;SDS011;23385;52.038;20.322;2022-07-01T02:38:09;17.70;;;8.82;;
37543;SDS011;23385;52.038;20.322;2022-07-01T02:40:35;16.55;;;9.13;;
37543;SDS011;23385;52.038;20.322;2022-07-01T02:43:04;15.50;;;10.63;;
37543;SDS011;23385;52.038;20.322;2022-07-01T02:45:31;14.30;;;9.05;;
37543;SDS011;23385;52.038;20.322;2022-07-01T02:47:57;17.35;;;11.48;;
37543;SDS011;23385;52.038;20.322;2022-07-01T02:50:22;19.30;;;12.75;;
37543;SDS011;23385;52.038;20.322;2022-07-01T02:52:49;20.90;;;13.57;;
37543;SDS011;23385;52.038;20.322;2022-07-01T02:55:15;19.23;;;12.82;;
37543;SDS011;23385;52.038;20.322;2022-07-01T02:57:41;17.83;;;11.95;;
37543;SDS011;23385;52.038;20.322;2022-07-01T03:00:09;24.17;;;12.82;;
37543;SDS011;23385;52.038;20.322;2022-07-01T03:02:37;17.65;;;11.98;;
37543;SDS011;23385;52.038;20.322;2022-07-01T03:05:03;23.08;;;13.02;;
37543;SDS011;23385;52.038;20.322;2022-07-01T03:07:29;17.45;;;12.15;;
37543;SDS011;23385;52.038;20.322;2022-07-01T03:09:56;23.60;;;12.60;;
37543;SDS011;23385;52.038;20.322;2022-07-01T03:12:22;22.05;;;12.30;;
37543;SDS011;23385;52.038;20.322;2022-07-01T03:14:56;18.77;;;12.07;;
37543;SDS011;23385;52.038;20.322;2022-07-01T03:17:33;22.02;;;13.18;;
37543;SDS011;23385;52.038;20.322;2022-07-01T03:20:00;17.95;;;12.63;;
37543;SDS011;23385;52.038;20.322;2022-07-01T03:22:28;15.98;;;11.65;;
37543;SDS011;23385;52.038;20.322;2022-07-01T03:24:57;20.77;;;11.27;;
37543;SDS011;23385;52.038;20.322;2022-07-01T03:27:24;21.17;;;11.15;;
37543;SDS011;23385;52.038;20.322;2022-07-01T03:29:50;17.67;;;10.27;;
37543;SDS011;23385;52.038;20.322;2022-07-01T03:32:17;15.75;;;9.88;;
37543;SDS011;23385;52.038;20.322;2022-07-01T03:34:44;17.10;;;10.27;;
37543;SDS011;23385;52.038;20.322;2022-07-01T03:37:12;18.00;;;10.25;;
37543;SDS011;23385;52.038;20.322;2022-07-01T03:39:39;16.80;;;10.13;;
37543;SDS011;23385;52.038;20.322;2022-07-01T03:42:06;17.48;;;10.10;;
37543;SDS011;23385;52.038;20.322;2022-07-01T03:44:33;16.20;;;9.30;;
37543;SDS011;23385;52.038;20.322;2022-07-01T03:47:00;13.70;;;9.20;;
37543;SDS011;23385;52.038;20.322;2022-07-01T03:49:26;15.00;;;9.48;;
37543;SDS011;23385;52.038;20.322;2022-07-01T03:51:52;13.80;;;9.73;;
37543;SDS011;23385;52.038;20.322;2022-07-01T03:54:18;16.08;;;9.45;;
37543;SDS011;23385;52.038;20.322;2022-07-01T03:59:28;22.58;;;10.18;;
37543;SDS011;23385;52.038;20.322;2022-07-01T04:01:55;16.63;;;9.77;;
37543;SDS011;23385;52.038;20.322;2022-07-01T04:04:24;12.65;;;9.38;;
37543;SDS011;23385;52.038;20.322;2022-07-01T04:06:52;14.65;;;9.43;;
37543;SDS011;23385;52.038;20.322;2022-07-01T04:09:19;17.13;;;9.43;;
37543;SDS011;23385;52.038;20.322;2022-07-01T04:11:45;15.35;;;9.13;;
37543;SDS011;23385;52.038;20.322;2022-07-01T04:14:13;15.02;;;10.05;;
37543;SDS011;23385;52.038;20.322;2022-07-01T04:16:39;21.02;;;10.68;;
37543;SDS011;23385;52.038;20.322;2022-07-01T04:19:05;15.95;;;9.13;;
37543;SDS011;23385;52.038;20.322;2022-07-01T04:21:31;16.15;;;10.32;;
37543;SDS011;23385;52.038;20.322;2022-07-01T04:24:15;20.63;;;10.07;;
37543;SDS011;23385;52.038;20.322;2022-07-01T04:26:41;20.38;;;10.27;;
37543;SDS011;23385;52.038;20.322;2022-07-01T04:29:08;18.50;;;10.15;;
37543;SDS011;23385;52.038;20.322;2022-07-01T04:31:35;14.48;;;10.88;;
37543;SDS011;23385;52.038;20.322;2022-07-01T04:34:02;16.48;;;10.55;;
37543;SDS011;23385;52.038;20.322;2022-07-01T04:36:28;16.27;;;10.70;;
37543;SDS011;23385;52.038;20.322;2022-07-01T04:38:54;16.73;;;11.40;;
37543;SDS011;23385;52.038;20.322;2022-07-01T04:41:20;14.43;;;10.98;;
37543;SDS011;23385;52.038;20.322;2022-07-01T04:44:04;21.23;;;10.23;;
37543;SDS011;23385;52.038;20.322;2022-07-01T04:46:31;13.48;;;10.13;;
37543;SDS011;23385;52.038;20.322;2022-07-01T04:48:56;15.00;;;11.18;;
37543;SDS011;23385;52.038;20.322;2022-07-01T04:51:22;15.15;;;11.57;;
37543;SDS011;23385;52.038;20.322;2022-07-01T04:53:48;19.30;;;11.20;;
37543;SDS011;23385;52.038;20.322;2022-07-01T04:56:14;20.27;;;12.13;;
37543;SDS011;23385;52.038;20.322;2022-07-01T04:58:40;18.42;;;11.60;;
37543;SDS011;23385;52.038;20.322;2022-07-01T05:01:06;15.75;;;12.13;;
37543;SDS011;23385;52.038;20.322;2022-07-01T05:03:32;17.95;;;11.95;;
37543;SDS011;23385;52.038;20.322;2022-07-01T05:05:59;20.13;;;12.13;;
37543;SDS011;23385;52.038;20.322;2022-07-01T05:08:25;16.00;;;12.30;;
37543;SDS011;23385;52.038;20.322;2022-07-01T05:10:51;18.67;;;12.20;;
37543;SDS011;23385;52.038;20.322;2022-07-01T05:13:17;17.77;;;12.57;;
37543;SDS011;23385;52.038;20.322;2022-07-01T05:15:43;17.20;;;12.88;;
37543;SDS011;23385;52.038;20.322;2022-07-01T05:18:08;14.82;;;11.85;;
37543;SDS011;23385;52.038;20.322;2022-07-01T05:20:53;20.25;;;13.75;;
37543;SDS011;23385;52.038;20.322;2022-07-01T05:23:38;15.27;;;12.82;;
37543;SDS011;23385;52.038;20.322;2022-07-01T05:26:06;16.77;;;13.38;;
37543;SDS011;23385;52.038;20.322;2022-07-01T05:28:32;18.92;;;13.13;;
37543;SDS011;23385;52.038;20.322;2022-07-01T05:30:59;14.40;;;13.02;;
37543;SDS011;23385;52.038;20.322;2022-07-01T05:33:25;20.45;;;14.15;;
37543;SDS011;23385;52.038;20.322;2022-07-01T05:35:54;15.07;;;13.48;;
37543;SDS011;23385;52.038;20.322;2022-07-01T05:38:20;17.67;;;13.40;;
37543;SDS011;23385;52.038;20.322;2022-07-01T05:40:46;18.08;;;13.93;;
37543;SDS011;23385;52.038;20.322;2022-07-01T05:43:15;19.58;;;13.52;;
37543;SDS011;23385;52.038;20.322;2022-07-01T05:45:51;18.88;;;13.30;;
37543;SDS011;23385;52.038;20.322;2022-07-01T05:48:18;15.88;;;13.32;;
37543;SDS011;23385;52.038;20.322;2022-07-01T05:50:47;21.20;;;14.38;;
37543;SDS011;23385;52.038;20.322;2022-07-01T05:53:13;16.98;;;13.25;;
37543;SDS011;23385;52.038;20.322;2022-07-01T05:55:39;18.15;;;13.25;;
37543;SDS011;23385;52.038;20.322;2022-07-01T05:58:06;21.38;;;14.32;;
37543;SDS011;23385;52.038;20.322;2022-07-01T06:00:33;15.82;;;12.85;;
37543;SDS011;23385;52.038;20.322;2022-07-01T06:02:59;17.65;;;13.43;;
37543;SDS011;23385;52.038;20.322;2022-07-01T06:05:25;16.23;;;13.63;;
37543;SDS011;23385;52.038;20.322;2022-07-01T06:07:53;17.23;;;13.73;;
37543;SDS011;23385;52.038;20.322;2022-07-01T06:10:21;15.30;;;13.35;;
37543;SDS011;23385;52.038;20.322;2022-07-01T06:12:48;14.85;;;13.07;;
37543;SDS011;23385;52.038;20.322;2022-07-01T06:15:15;19.25;;;12.90;;
37543;SDS011;23385;52.038;20.322;2022-07-01T06:17:40;13.95;;;12.35;;
37543;SDS011;23385;52.038;20.322;2022-07-01T06:20:10;15.55;;;12.80;;
37543;SDS011;23385;52.038;20.322;2022-07-01T06:22:38;16.02;;;12.70;;
37543;SDS011;23385;52.038;20.322;2022-07-01T06:25:04;17.25;;;12.73;;
37543;SDS011;23385;52.038;20.322;2022-07-01T06:27:38;15.02;;;12.32;;
37543;SDS011;23385;52.038;20.322;2022-07-01T06:30:08;19.13;;;12.07;;
37543;SDS011;23385;52.038;20.322;2022-07-01T06:32:46;16.48;;;12.00;;
37543;SDS011;23385;52.038;20.322;2022-07-01T06:35:25;14.85;;;12.55;;
37543;SDS011;23385;52.038;20.322;2022-07-01T06:37:51;16.58;;;11.38;;
37543;SDS011;23385;52.038;20.322;2022-07-01T06:40:17;14.70;;;11.65;;
37543;SDS011;23385;52.038;20.322;2022-07-01T06:42:42;14.07;;;11.40;;
37543;SDS011;23385;52.038;20.322;2022-07-01T06:45:08;13.73;;;11.60;;
37543;SDS011;23385;52.038;20.322;2022-07-01T06:47:34;12.18;;;10.82;;
37543;SDS011;23385;52.038;20.322;2022-07-01T06:50:01;12.35;;;11.05;;
37543;SDS011;23385;52.038;20.322;2022-07-01T06:52:35;13.00;;;11.68;;
37543;SDS011;23385;52.038;20.322;2022-07-01T06:55:12;12.90;;;11.70;;
37543;SDS011;23385;52.038;20.322;2022-07-01T06:57:39;15.90;;;11.45;;
37543;SDS011;23385;52.038;20.322;2022-07-01T07:00:05;13.40;;;11.90;;
37543;SDS011;23385;52.038;20.322;2022-07-01T07:02:31;13.57;;;12.13;;
37543;SDS011;23385;52.038;20.322;2022-07-01T07:04:57;18.20;;;11.85;;
37543;SDS011;23385;52.038;20.322;2022-07-01T07:07:25;12.55;;;11.27;;
37543;SDS011;23385;52.038;20.322;2022-07-01T07:09:50;13.40;;;10.95;;
37543;SDS011;23385;52.038;20.322;2022-07-01T07:12:17;18.98;;;11.38;;
37543;SDS011;23385;52.038;20.322;2022-07-01T07:14:47;11.68;;;10.60;;
37543;SDS011;23385;52.038;20.322;2022-07-01T07:17:33;15.02;;;10.82;;
37543;SDS011;23385;52.038;20.322;2022-07-01T07:20:15;15.60;;;11.20;;
37543;SDS011;23385;52.038;20.322;2022-07-01T07:23:11;12.32;;;10.32;;
37543;SDS011;23385;52.038;20.322;2022-07-01T07:25:39;13.85;;;10.35;;
37543;SDS011;23385;52.038;20.322;2022-07-01T07:28:05;16.77;;;10.90;;
37543;SDS011;23385;52.038;20.322;2022-07-01T07:30:30;11.35;;;10.20;;
37543;SDS011;23385;52.038;20.322;2022-07-01T07:32:56;12.18;;;10.07;;
37543;SDS011;23385;52.038;20.322;2022-07-01T07:35:22;13.63;;;10.13;;
37543;SDS011;23385;52.038;20.322;2022-07-01T07:37:48;24.50;;;10.93;;
37543;SDS011;23385;52.038;20.322;2022-07-01T07:40:14;13.10;;;10.55;;
37543;SDS011;23385;52.038;20.322;2022-07-01T07:42:45;13.98;;;10.27;;
37543;SDS011;23385;52.038;20.322;2022-07-01T07:45:13;11.63;;;10.60;;
37543;SDS011;23385;52.038;20.322;2022-07-01T07:47:43;12.13;;;10.30;;
37543;SDS011;23385;52.038;20.322;2022-07-01T07:50:10;13.25;;;10.57;;
37543;SDS011;23385;52.038;20.322;2022-07-01T07:52:36;11.43;;;9.10;;
37543;SDS011;23385;52.038;20.322;2022-07-01T07:55:04;12.23;;;10.27;;
37543;SDS011;23385;52.038;20.322;2022-07-01T07:57:37;10.50;;;9.50;;
37543;SDS011;23385;52.038;20.322;2022-07-01T08:00:19;16.15;;;10.25;;
37543;SDS011;23385;52.038;20.322;2022-07-01T08:02:59;12.52;;;9.20;;
37543;SDS011;23385;52.038;20.322;2022-07-01T08:05:34;13.40;;;9.93;;
37543;SDS011;23385;52.038;20.322;2022-07-01T08:08:00;11.32;;;8.90;;
37543;SDS011;23385;52.038;20.322;2022-07-01T08:10:26;10.48;;;9.02;;
37543;SDS011;23385;52.038;20.322;2022-07-01T08:12:51;12.05;;;8.77;;
37543;SDS011;23385;52.038;20.322;2022-07-01T08:15:17;12.63;;;8.88;;
37543;SDS011;23385;52.038;20.322;2022-07-01T08:17:43;14.90;;;9.27;;
37543;SDS011;23385;52.038;20.322;2022-07-01T08:20:09;11.30;;;8.60;;
37543;SDS011;23385;52.038;20.322;2022-07-01T08:22:35;10.25;;;8.65;;
37543;SDS011;23385;52.038;20.322;2022-07-01T08:25:01;9.52;;;8.52;;
37543;SDS011;23385;52.038;20.322;2022-07-01T08:27:28;12.05;;;9.00;;
37543;SDS011;23385;52.038;20.322;2022-07-01T08:29:54;10.48;;;8.75;;
37543;SDS011;23385;52.038;20.322;2022-07-01T08:32:20;9.80;;;8.73;;
37543;SDS011;23385;52.038;20.322;2022-07-01T08:34:47;13.77;;;8.75;;
37543;SDS011;23385;52.038;20.322;2022-07-01T08:37:12;9.70;;;8.82;;
37543;SDS011;23385;52.038;20.322;2022-07-01T08:39:43;11.38;;;9.18;;
37543;SDS011;23385;52.038;20.322;2022-07-01T08:42:14;11.02;;;8.90;;
37543;SDS011;23385;52.038;20.322;2022-07-01T08:44:50;13.93;;;8.63;;
37543;SDS011;23385;52.038;20.322;2022-07-01T08:47:22;13.43;;;8.43;;
37543;SDS011;23385;52.038;20.322;2022-07-01T08:49:47;10.88;;;8.20;;
37543;SDS011;23385;52.038;20.322;2022-07-01T08:52:13;10.40;;;9.02;;
37543;SDS011;23385;52.038;20.322;2022-07-01T08:54:41;10.45;;;8.25;;
37543;SDS011;23385;52.038;20.322;2022-07-01T08:57:06;10.57;;;8.43;;
37543;SDS011;23385;52.038;20.322;2022-07-01T08:59:33;10.00;;;8.73;;
37543;SDS011;23385;52.038;20.322;2022-07-01T09:02:00;11.52;;;7.80;;
37543;SDS011;23385;52.038;20.322;2022-07-01T09:04:36;8.40;;;7.60;;
37543;SDS011;23385;52.038;20.322;2022-07-01T09:07:16;15.77;;;8.57;;
37543;SDS011;23385;52.038;20.322;2022-07-01T09:09:42;8.82;;;7.93;;
37543;SDS011;23385;52.038;20.322;2022-07-01T09:12:08;14.55;;;8.00;;
37543;SDS011;23385;52.038;20.322;2022-07-01T09:14:35;12.07;;;8.23;;
37543;SDS011;23385;52.038;20.322;2022-07-01T09:17:04;11.65;;;8.63;;
37543;SDS011;23385;52.038;20.322;2022-07-01T09:19:36;11.52;;;8.20;;
37543;SDS011;23385;52.038;20.322;2022-07-01T09:22:03;11.98;;;7.88;;
37543;SDS011;23385;52.038;20.322;2022-07-01T09:24:40;10.65;;;8.13;;
37543;SDS011;23385;52.038;20.322;2022-07-01T09:27:16;10.80;;;8.23;;
37543;SDS011;23385;52.038;20.322;2022-07-01T09:29:54;8.73;;;7.93;;
37543;SDS011;23385;52.038;20.322;2022-07-01T09:32:20;9.13;;;8.32;;
37543;SDS011;23385;52.038;20.322;2022-07-01T09:34:48;10.75;;;7.78;;
37543;SDS011;23385;52.038;20.322;2022-07-01T09:37:19;11.32;;;8.50;;
37543;SDS011;23385;52.038;20.322;2022-07-01T09:39:47;13.93;;;8.45;;
37543;SDS011;23385;52.038;20.322;2022-07-01T09:42:13;9.68;;;8.55;;
37543;SDS011;23385;52.038;20.322;2022-07-01T09:44:58;13.52;;;8.20;;
37543;SDS011;23385;52.038;20.322;2022-07-01T09:47:41;12.43;;;8.23;;
37543;SDS011;23385;52.038;20.322;2022-07-01T09:50:10;13.98;;;8.32;;
37543;SDS011;23385;52.038;20.322;2022-07-01T09:52:36;13.30;;;9.10;;
37543;SDS011;23385;52.038;20.322;2022-07-01T09:55:04;9.30;;;8.38;;
37543;SDS011;23385;52.038;20.322;2022-07-01T09:57:32;10.95;;;9.02;;
37543;SDS011;23385;52.038;20.322;2022-07-01T09:59:58;13.15;;;9.05;;
37543;SDS011;23385;52.038;20.322;2022-07-01T10:02:24;12.35;;;8.30;;
37543;SDS011;23385;52.038;20.322;2022-07-01T10:05:07;13.48;;;8.80;;
37543;SDS011;23385;52.038;20.322;2022-07-01T10:10:04;12.13;;;9.02;;
37543;SDS011;23385;52.038;20.322;2022-07-01T10:12:43;12.15;;;8.88;;
37543;SDS011;23385;52.038;20.322;2022-07-01T10:15:15;12.35;;;8.50;;
37543;SDS011;23385;52.038;20.322;2022-07-01T10:17:48;18.85;;;9.27;;
37543;SDS011;23385;52.038;20.322;2022-07-01T10:20:16;11.50;;;9.32;;
37543;SDS011;23385;52.038;20.322;2022-07-01T10:22:44;13.45;;;8.30;;
37543;SDS011;23385;52.038;20.322;2022-07-01T10:41:29;11.73;;;7.78;;
37543;SDS011;23385;52.038;20.322;2022-07-01T10:43:57;9.90;;;8.10;;
37543;SDS011;23385;52.038;20.322;2022-07-01T10:52:15;14.32;;;8.15;;
37543;SDS011;23385;52.038;20.322;2022-07-01T10:57:20;8.70;;;6.80;;
37543;SDS011;23385;52.038;20.322;2022-07-01T11:04:59;7.45;;;6.68;;
37543;SDS011;23385;52.038;20.322;2022-07-01T11:07:28;9.05;;;7.00;;
37543;SDS011;23385;52.038;20.322;2022-07-01T11:10:03;9.30;;;6.82;;
37543;SDS011;23385;52.038;20.322;2022-07-01T11:12:31;10.32;;;7.10;;
37543;SDS011;23385;52.038;20.322;2022-07-01T11:14:59;10.60;;;6.53;;
37543;SDS011;23385;52.038;20.322;2022-07-01T11:17:32;12.02;;;7.35;;
37543;SDS011;23385;52.038;20.322;2022-07-01T11:20:00;10.63;;;6.75;;
37543;SDS011;23385;52.038;20.322;2022-07-01T11:22:31;7.75;;;6.60;;
37543;SDS011;23385;52.038;20.322;2022-07-01T11:25:02;11.88;;;6.57;;
37543;SDS011;23385;52.038;20.322;2022-07-01T11:27:30;9.40;;;6.80;;
37543;SDS011;23385;52.038;20.322;2022-07-01T11:29:58;7.30;;;6.60;;
37543;SDS011;23385;52.038;20.322;2022-07-01T11:32:30;12.40;;;6.85;;
37543;SDS011;23385;52.038;20.322;2022-07-01T11:34:58;10.32;;;7.15;;
37543;SDS011;23385;52.038;20.322;2022-07-01T11:37:28;7.85;;;6.93;;
37543;SDS011;23385;52.038;20.322;2022-07-01T11:40:24;10.55;;;6.60;;
37543;SDS011;23385;52.038;20.322;2022-07-01T11:42:52;11.45;;;7.00;;
37543;SDS011;23385;52.038;20.322;2022-07-01T11:45:25;7.70;;;6.88;;
37543;SDS011;23385;52.038;20.322;2022-07-01T11:47:52;7.38;;;6.60;;
37543;SDS011;23385;52.038;20.322;2022-07-01T11:50:18;9.88;;;6.80;;
37543;SDS011;23385;52.038;20.322;2022-07-01T11:52:45;11.50;;;6.68;;
37543;SDS011;23385;52.038;20.322;2022-07-01T11:55:10;12.38;;;6.95;;
37543;SDS011;23385;52.038;20.322;2022-07-01T11:57:36;10.65;;;6.93;;
37543;SDS011;23385;52.038;20.322;2022-07-01T12:00:12;8.50;;;7.53;;
37543;SDS011;23385;52.038;20.322;2022-07-01T12:02:41;8.23;;;6.50;;
37543;SDS011;23385;52.038;20.322;2022-07-01T12:05:07;10.52;;;6.50;;
37543;SDS011;23385;52.038;20.322;2022-07-01T12:07:33;8.07;;;6.75;;
37543;SDS011;23385;52.038;20.322;2022-07-01T12:09:59;8.20;;;6.90;;
37543;SDS011;23385;52.038;20.322;2022-07-01T12:12:26;11.35;;;6.78;;
37543;SDS011;23385;52.038;20.322;2022-07-01T12:14:56;9.80;;;6.85;;
37543;SDS011;23385;52.038;20.322;2022-07-01T12:17:24;13.02;;;6.38;;
37543;SDS011;23385;52.038;20.322;2022-07-01T12:19:51;10.65;;;6.60;;
37543;SDS011;23385;52.038;20.322;2022-07-01T12:22:20;9.30;;;6.90;;
37543;SDS011;23385;52.038;20.322;2022-07-01T12:25:04;16.50;;;6.72;;
37543;SDS011;23385;52.038;20.322;2022-07-01T12:27:37;13.55;;;6.97;;
37543;SDS011;23385;52.038;20.322;2022-07-01T12:30:04;8.23;;;6.90;;
37543;SDS011;23385;52.038;20.322;2022-07-01T12:32:32;6.90;;;6.18;;
37543;SDS011;23385;52.038;20.322;2022-07-01T12:35:12;13.50;;;6.20;;
37543;SDS011;23385;52.038;20.322;2022-07-01T12:38:17;12.73;;;6.30;;
37543;SDS011;23385;52.038;20.322;2022-07-01T12:40:44;9.05;;;6.53;;
37543;SDS011;23385;52.038;20.322;2022-07-01T12:46:01;15.23;;;6.32;;
37543;SDS011;23385;52.038;20.322;2022-07-01T12:48:27;15.15;;;6.90;;
37543;SDS011;23385;52.038;20.322;2022-07-01T12:50:54;6.78;;;6.07;;
37543;SDS011;23385;52.038;20.322;2022-07-01T12:53:21;9.65;;;6.50;;
37543;SDS011;23385;52.038;20.322;2022-07-01T12:55:55;11.05;;;7.18;;
37543;SDS011;23385;52.038;20.322;2022-07-01T12:58:28;11.07;;;6.07;;
37543;SDS011;23385;52.038;20.322;2022-07-01T13:00:54;13.02;;;6.63;;
37543;SDS011;23385;52.038;20.322;2022-07-01T13:03:26;13.07;;;6.32;;
37543;SDS011;23385;52.038;20.322;2022-07-01T13:05:53;11.68;;;5.95;;
37543;SDS011;23385;52.038;20.322;2022-07-01T13:08:20;12.95;;;6.10;;
37543;SDS011;23385;52.038;20.322;2022-07-01T13:10:47;11.32;;;6.10;;
37543;SDS011;23385;52.038;20.322;2022-07-01T13:13:14;17.52;;;6.40;;
37543;SDS011;23385;52.038;20.322;2022-07-01T13:15:43;13.80;;;5.88;;
37543;SDS011;23385;52.038;20.322;2022-07-01T13:18:09;11.65;;;5.90;;
37543;SDS011;23385;52.038;20.322;2022-07-01T13:20:35;9.40;;;5.75;;
37543;SDS011;23385;52.038;20.322;2022-07-01T13:23:03;10.85;;;6.00;;
37543;SDS011;23385;52.038;20.322;2022-07-01T13:25:29;9.80;;;6.18;;
37543;SDS011;23385;52.038;20.322;2022-07-01T13:27:56;13.98;;;6.85;;
37543;SDS011;23385;52.038;20.322;2022-07-01T13:30:25;11.15;;;5.97;;
37543;SDS011;23385;52.038;20.322;2022-07-01T13:33:05;10.77;;;5.90;;
37543;SDS011;23385;52.038;20.322;2022-07-01T13:35:50;11.60;;;6.00;;
37543;SDS011;23385;52.038;20.322;2022-07-01T13:38:15;11.50;;;5.35;;
37543;SDS011;23385;52.038;20.322;2022-07-01T13:40:41;12.90;;;5.53;;
37543;SDS011;23385;52.038;20.322;2022-07-01T13:43:07;10.10;;;5.63;;
37543;SDS011;23385;52.038;20.322;2022-07-01T13:45:33;10.07;;;6.30;;
37543;SDS011;23385;52.038;20.322;2022-07-01T13:47:58;11.20;;;6.25;;
37543;SDS011;23385;52.038;20.322;2022-07-01T13:50:24;8.50;;;5.65;;
37543;SDS011;23385;52.038;20.322;2022-07-01T13:52:50;10.88;;;5.75;;
37543;SDS011;23385;52.038;20.322;2022-07-01T13:55:21;12.68;;;5.82;;
37543;SDS011;23385;52.038;20.322;2022-07-01T13:57:59;10.18;;;5.75;;
37543;SDS011;23385;52.038;20.322;2022-07-01T14:00:25;8.55;;;5.30;;
37543;SDS011;23385;52.038;20.322;2022-07-01T14:02:51;13.40;;;5.88;;
37543;SDS011;23385;52.038;20.322;2022-07-01T14:05:17;10.07;;;6.03;;
37543;SDS011;23385;52.038;20.322;2022-07-01T14:07:42;10.57;;;5.78;;
37543;SDS011;23385;52.038;20.322;2022-07-01T14:10:08;9.40;;;5.75;;
37543;SDS011;23385;52.038;20.322;2022-07-01T14:12:44;9.32;;;5.10;;
37543;SDS011;23385;52.038;20.322;2022-07-01T14:15:26;14.13;;;6.15;;
37543;SDS011;23385;52.038;20.322;2022-07-01T14:18:05;11.32;;;5.85;;
37543;SDS011;23385;52.038;20.322;2022-07-01T14:20:42;14.18;;;5.72;;
37543;SDS011;23385;52.038;20.322;2022-07-01T14:23:09;11.80;;;5.78;;
37543;SDS011;23385;52.038;20.322;2022-07-01T14:25:35;14.68;;;6.53;;
37543;SDS011;23385;52.038;20.322;2022-07-01T14:28:01;13.52;;;6.28;;
37543;SDS011;23385;52.038;20.322;2022-07-01T14:30:27;12.65;;;5.85;;
37543;SDS011;23385;52.038;20.322;2022-07-01T14:32:53;11.60;;;5.85;;
37543;SDS011;23385;52.038;20.322;2022-07-01T14:35:18;7.50;;;5.63;;
37543;SDS011;23385;52.038;20.322;2022-07-01T14:37:51;14.35;;;5.78;;
37543;SDS011;23385;52.038;20.322;2022-07-01T14:40:16;8.20;;;6.53;;
37543;SDS011;23385;52.038;20.322;2022-07-01T14:42:44;12.00;;;8.43;;
37543;SDS011;23385;52.038;20.322;2022-07-01T14:45:11;11.10;;;6.75;;
37543;SDS011;23385;52.038;20.322;2022-07-01T14:47:40;13.55;;;6.10;;
37543;SDS011;23385;52.038;20.322;2022-07-01T14:50:09;12.32;;;6.47;;
37543;SDS011;23385;52.038;20.322;2022-07-01T14:52:39;8.50;;;5.93;;
37543;SDS011;23385;52.038;20.322;2022-07-01T14:55:16;14.35;;;5.72;;
37543;SDS011;23385;52.038;20.322;2022-07-01T14:57:43;13.90;;;6.25;;
37543;SDS011;23385;52.038;20.322;2022-07-01T15:00:09;11.20;;;6.07;;
37543;SDS011;23385;52.038;20.322;2022-07-01T15:02:37;13.93;;;6.63;;
37543;SDS011;23385;52.038;20.322;2022-07-01T15:05:04;11.35;;;6.13;;
37543;SDS011;23385;52.038;20.322;2022-07-01T15:07:30;10.18;;;5.95;;
37543;SDS011;23385;52.038;20.322;2022-07-01T15:09:56;12.45;;;5.57;;